sensor_id;sensor_type;location;lat;lon;timestamp;P1;durP1;ratioP1;P2;durP2;ratioP2
40871;SDS011;26591;43.264;26.940;2023-04-25T00:00:35;11.70;;;4.75;;
40871;SDS011;26591;43.264;26.940;2023-04-25T00:03:00;13.45;;;4.80;;
40871;SDS011;26591;43.264;26.940;2023-04-25T00:05:26;9.23;;;4.53;;
40871;SDS011;26591;43.264;26.940;2023-04-25T00:07:52;11.38;;;5.28;;
40871;SDS011;26591;43.264;26.940;2023-04-25T00:10:18;9.80;;;4.60;;
40871;SDS011;26591;43.264;26.940;2023-04-25T00:12:45;8.52;;;4.68;;
40871;SDS011;26591;43.264;26.940;2023-04-25T00:15:11;14.52;;;5.30;;
40871;SDS011;26591;43.264;26.940;2023-04-25T00:17:37;13.70;;;5.60;;
40871;SDS011;26591;43.264;26.940;2023-04-25T00:20:03;12.30;;;5.35;;
40871;SDS011;26591;43.264;26.940;2023-04-25T00:22:30;10.93;;;6.20;;
40871;SDS011;26591;43.264;26.940;2023-04-25T00:24:56;10.45;;;5.45;;
40871;SDS011;26591;43.264;26.940;2023-04-25T00:27:25;12.63;;;5.78;;
40871;SDS011;26591;43.264;26.940;2023-04-25T00:29:50;9.75;;;5.47;;
40871;SDS011;26591;43.264;26.940;2023-04-25T00:32:16;13.02;;;6.88;;
40871;SDS011;26591;43.264;26.940;2023-04-25T00:34:41;12.63;;;5.38;;
40871;SDS011;26591;43.264;26.940;2023-04-25T00:37:07;17.58;;;6.25;;
40871;SDS011;26591;43.264;26.940;2023-04-25T00:39:32;16.02;;;6.03;;
40871;SDS011;26591;43.264;26.940;2023-04-25T00:41:58;10.60;;;5.90;;
40871;SDS011;26591;43.264;26.940;2023-04-25T00:44:24;13.45;;;6.07;;
40871;SDS011;26591;43.264;26.940;2023-04-25T00:46:50;12.77;;;5.75;;
40871;SDS011;26591;43.264;26.940;2023-04-25T00:49:15;16.63;;;6.38;;
40871;SDS011;26591;43.264;26.940;2023-04-25T00:51:42;13.55;;;6.38;;
40871;SDS011;26591;43.264;26.940;2023-04-25T00:54:10;13.38;;;7.38;;
40871;SDS011;26591;43.264;26.940;2023-04-25T00:56:37;9.63;;;5.72;;
40871;SDS011;26591;43.264;26.940;2023-04-25T00:59:03;14.80;;;7.40;;
40871;SDS011;26591;43.264;26.940;2023-04-25T01:01:28;13.75;;;6.47;;
40871;SDS011;26591;43.264;26.940;2023-04-25T01:03:55;12.07;;;6.53;;
40871;SDS011;26591;43.264;26.940;2023-04-25T01:06:22;11.50;;;6.43;;
40871;SDS011;26591;43.264;26.940;2023-04-25T01:08:48;11.80;;;6.60;;
40871;SDS011;26591;43.264;26.940;2023-04-25T01:11:13;13.23;;;6.72;;
40871;SDS011;26591;43.264;26.940;2023-04-25T01:13:39;18.65;;;6.82;;
40871;SDS011;26591;43.264;26.940;2023-04-25T01:16:05;15.65;;;6.68;;
40871;SDS011;26591;43.264;26.940;2023-04-25T01:18:30;16.55;;;6.57;;
40871;SDS011;26591;43.264;26.940;2023-04-25T01:20:56;18.13;;;7.38;;
40871;SDS011;26591;43.264;26.940;2023-04-25T01:23:27;11.65;;;6.82;;
40871;SDS011;26591;43.264;26.940;2023-04-25T01:25:54;18.52;;;9.27;;
40871;SDS011;26591;43.264;26.940;2023-04-25T01:28:20;14.52;;;7.30;;
40871;SDS011;26591;43.264;26.940;2023-04-25T01:30:47;14.77;;;7.15;;
40871;SDS011;26591;43.264;26.940;2023-04-25T01:33:12;16.92;;;7.40;;
40871;SDS011;26591;43.264;26.940;2023-04-25T01:35:40;12.18;;;7.07;;
40871;SDS011;26591;43.264;26.940;2023-04-25T01:38:06;18.60;;;7.03;;
40871;SDS011;26591;43.264;26.940;2023-04-25T01:40:31;11.93;;;6.55;;
40871;SDS011;26591;43.264;26.940;2023-04-25T01:42:59;17.20;;;8.20;;
40871;SDS011;26591;43.264;26.940;2023-04-25T01:45:25;15.38;;;7.57;;
40871;SDS011;26591;43.264;26.940;2023-04-25T01:47:50;12.63;;;7.32;;
40871;SDS011;26591;43.264;26.940;2023-04-25T01:50:17;14.40;;;7.18;;
40871;SDS011;26591;43.264;26.940;2023-04-25T01:52:43;17.50;;;7.18;;
40871;SDS011;26591;43.264;26.940;2023-04-25T01:55:09;13.25;;;7.85;;
40871;SDS011;26591;43.264;26.940;2023-04-25T01:57:35;16.75;;;8.00;;
40871;SDS011;26591;43.264;26.940;2023-04-25T02:00:03;14.52;;;7.68;;
40871;SDS011;26591;43.264;26.940;2023-04-25T02:02:31;13.80;;;7.38;;
40871;SDS011;26591;43.264;26.940;2023-04-25T02:04:57;19.00;;;7.72;;
40871;SDS011;26591;43.264;26.940;2023-04-25T02:07:22;13.43;;;7.78;;
40871;SDS011;26591;43.264;26.940;2023-04-25T02:09:50;21.95;;;7.75;;
40871;SDS011;26591;43.264;26.940;2023-04-25T02:12:24;21.42;;;9.43;;
40871;SDS011;26591;43.264;26.940;2023-04-25T02:14:51;18.25;;;9.15;;
40871;SDS011;26591;43.264;26.940;2023-04-25T02:17:16;18.83;;;9.60;;
40871;SDS011;26591;43.264;26.940;2023-04-25T02:19:44;17.48;;;9.27;;
40871;SDS011;26591;43.264;26.940;2023-04-25T02:22:10;20.17;;;10.15;;
40871;SDS011;26591;43.264;26.940;2023-04-25T02:24:36;19.42;;;10.95;;
40871;SDS011;26591;43.264;26.940;2023-04-25T02:27:01;23.27;;;10.35;;
40871;SDS011;26591;43.264;26.940;2023-04-25T02:29:29;21.27;;;9.52;;
40871;SDS011;26591;43.264;26.940;2023-04-25T02:31:54;27.30;;;10.77;;
40871;SDS011;26591;43.264;26.940;2023-04-25T02:34:20;23.10;;;10.82;;
40871;SDS011;26591;43.264;26.940;2023-04-25T02:36:46;25.88;;;11.40;;
40871;SDS011;26591;43.264;26.940;2023-04-25T02:39:11;25.08;;;10.15;;
40871;SDS011;26591;43.264;26.940;2023-04-25T02:41:37;26.30;;;10.05;;
40871;SDS011;26591;43.264;26.940;2023-04-25T02:44:02;27.90;;;11.88;;
40871;SDS011;26591;43.264;26.940;2023-04-25T02:46:28;30.33;;;11.35;;
40871;SDS011;26591;43.264;26.940;2023-04-25T02:48:53;23.58;;;12.68;;
40871;SDS011;26591;43.264;26.940;2023-04-25T02:51:19;20.80;;;11.00;;
40871;SDS011;26591;43.264;26.940;2023-04-25T02:53:44;30.65;;;15.20;;
40871;SDS011;26591;43.264;26.940;2023-04-25T02:56:10;27.67;;;15.05;;
40871;SDS011;26591;43.264;26.940;2023-04-25T02:58:35;34.15;;;12.82;;
40871;SDS011;26591;43.264;26.940;2023-04-25T03:01:01;25.20;;;10.90;;
40871;SDS011;26591;43.264;26.940;2023-04-25T03:03:26;21.50;;;11.73;;
40871;SDS011;26591;43.264;26.940;2023-04-25T03:05:52;24.55;;;11.60;;
40871;SDS011;26591;43.264;26.940;2023-04-25T03:08:18;22.23;;;11.32;;
40871;SDS011;26591;43.264;26.940;2023-04-25T03:10:44;23.23;;;10.48;;
40871;SDS011;26591;43.264;26.940;2023-04-25T03:13:10;30.17;;;11.52;;
40871;SDS011;26591;43.264;26.940;2023-04-25T03:15:36;31.13;;;11.52;;
40871;SDS011;26591;43.264;26.940;2023-04-25T03:18:03;24.77;;;11.30;;
40871;SDS011;26591;43.264;26.940;2023-04-25T03:20:29;22.17;;;10.68;;
40871;SDS011;26591;43.264;26.940;2023-04-25T03:22:55;21.83;;;11.07;;
40871;SDS011;26591;43.264;26.940;2023-04-25T03:25:21;22.25;;;10.45;;
40871;SDS011;26591;43.264;26.940;2023-04-25T03:27:47;20.20;;;10.55;;
40871;SDS011;26591;43.264;26.940;2023-04-25T03:30:12;24.20;;;10.80;;
40871;SDS011;26591;43.264;26.940;2023-04-25T03:32:38;20.02;;;11.68;;
40871;SDS011;26591;43.264;26.940;2023-04-25T03:35:04;26.27;;;11.75;;
40871;SDS011;26591;43.264;26.940;2023-04-25T03:37:30;30.58;;;10.65;;
40871;SDS011;26591;43.264;26.940;2023-04-25T03:40:00;32.47;;;10.55;;
40871;SDS011;26591;43.264;26.940;2023-04-25T03:42:25;23.70;;;9.15;;
40871;SDS011;26591;43.264;26.940;2023-04-25T03:44:52;27.20;;;10.25;;
40871;SDS011;26591;43.264;26.940;2023-04-25T03:47:17;18.42;;;9.07;;
40871;SDS011;26591;43.264;26.940;2023-04-25T03:49:43;18.27;;;8.95;;
40871;SDS011;26591;43.264;26.940;2023-04-25T03:52:09;24.02;;;9.23;;
40871;SDS011;26591;43.264;26.940;2023-04-25T03:54:35;23.42;;;8.35;;
40871;SDS011;26591;43.264;26.940;2023-04-25T03:57:00;12.75;;;7.13;;
40871;SDS011;26591;43.264;26.940;2023-04-25T03:59:27;16.02;;;8.02;;
40871;SDS011;26591;43.264;26.940;2023-04-25T04:01:52;16.60;;;6.45;;
40871;SDS011;26591;43.264;26.940;2023-04-25T04:04:18;21.42;;;7.75;;
40871;SDS011;26591;43.264;26.940;2023-04-25T04:06:43;15.90;;;7.28;;
40871;SDS011;26591;43.264;26.940;2023-04-25T04:09:09;23.55;;;6.82;;
40871;SDS011;26591;43.264;26.940;2023-04-25T04:11:36;20.27;;;7.78;;
40871;SDS011;26591;43.264;26.940;2023-04-25T04:14:04;20.83;;;7.00;;
40871;SDS011;26591;43.264;26.940;2023-04-25T04:16:30;20.85;;;8.20;;
40871;SDS011;26591;43.264;26.940;2023-04-25T04:18:56;24.60;;;7.63;;
40871;SDS011;26591;43.264;26.940;2023-04-25T04:21:21;21.65;;;8.07;;
40871;SDS011;26591;43.264;26.940;2023-04-25T04:23:47;22.13;;;7.32;;
40871;SDS011;26591;43.264;26.940;2023-04-25T04:26:13;16.45;;;8.20;;
40871;SDS011;26591;43.264;26.940;2023-04-25T04:28:41;16.40;;;6.15;;
40871;SDS011;26591;43.264;26.940;2023-04-25T04:31:09;12.57;;;7.03;;
40871;SDS011;26591;43.264;26.940;2023-04-25T04:33:35;22.02;;;7.30;;
40871;SDS011;26591;43.264;26.940;2023-04-25T04:36:02;19.67;;;7.43;;
40871;SDS011;26591;43.264;26.940;2023-04-25T04:38:28;30.88;;;7.75;;
40871;SDS011;26591;43.264;26.940;2023-04-25T04:40:54;26.50;;;8.70;;
40871;SDS011;26591;43.264;26.940;2023-04-25T04:43:21;19.83;;;7.32;;
40871;SDS011;26591;43.264;26.940;2023-04-25T04:45:47;25.63;;;7.32;;
40871;SDS011;26591;43.264;26.940;2023-04-25T04:48:14;19.45;;;7.47;;
40871;SDS011;26591;43.264;26.940;2023-04-25T04:50:39;22.35;;;7.88;;
40871;SDS011;26591;43.264;26.940;2023-04-25T04:53:05;21.55;;;8.65;;
40871;SDS011;26591;43.264;26.940;2023-04-25T04:55:31;25.92;;;8.80;;
40871;SDS011;26591;43.264;26.940;2023-04-25T04:57:56;40.70;;;11.30;;
40871;SDS011;26591;43.264;26.940;2023-04-25T05:00:22;21.40;;;9.40;;
40871;SDS011;26591;43.264;26.940;2023-04-25T05:02:47;21.85;;;8.90;;
40871;SDS011;26591;43.264;26.940;2023-04-25T05:05:13;42.05;;;11.40;;
40871;SDS011;26591;43.264;26.940;2023-04-25T05:07:38;22.30;;;9.43;;
40871;SDS011;26591;43.264;26.940;2023-04-25T05:10:07;26.10;;;10.15;;
40871;SDS011;26591;43.264;26.940;2023-04-25T05:12:33;24.60;;;9.27;;
40871;SDS011;26591;43.264;26.940;2023-04-25T05:15:01;31.20;;;10.30;;
40871;SDS011;26591;43.264;26.940;2023-04-25T05:17:27;27.58;;;9.18;;
40871;SDS011;26591;43.264;26.940;2023-04-25T05:19:52;29.45;;;9.60;;
40871;SDS011;26591;43.264;26.940;2023-04-25T05:22:22;25.60;;;9.00;;
40871;SDS011;26591;43.264;26.940;2023-04-25T05:24:48;20.48;;;8.82;;
40871;SDS011;26591;43.264;26.940;2023-04-25T05:27:17;22.20;;;8.60;;
40871;SDS011;26591;43.264;26.940;2023-04-25T05:29:43;27.95;;;9.30;;
40871;SDS011;26591;43.264;26.940;2023-04-25T05:32:08;21.58;;;7.35;;
40871;SDS011;26591;43.264;26.940;2023-04-25T05:34:34;16.83;;;7.75;;
40871;SDS011;26591;43.264;26.940;2023-04-25T05:37:00;18.70;;;6.50;;
40871;SDS011;26591;43.264;26.940;2023-04-25T05:39:25;18.65;;;7.28;;
40871;SDS011;26591;43.264;26.940;2023-04-25T05:41:51;20.95;;;6.65;;
40871;SDS011;26591;43.264;26.940;2023-04-25T05:44:17;25.73;;;6.60;;
40871;SDS011;26591;43.264;26.940;2023-04-25T05:46:43;17.88;;;6.18;;
40871;SDS011;26591;43.264;26.940;2023-04-25T05:49:09;74.47;;;12.27;;
40871;SDS011;26591;43.264;26.940;2023-04-25T05:51:34;13.68;;;5.40;;
40871;SDS011;26591;43.264;26.940;2023-04-25T05:54:00;15.57;;;5.72;;
40871;SDS011;26591;43.264;26.940;2023-04-25T05:56:25;10.40;;;5.28;;
40871;SDS011;26591;43.264;26.940;2023-04-25T05:58:51;8.63;;;4.93;;
40871;SDS011;26591;43.264;26.940;2023-04-25T06:01:16;19.90;;;4.88;;
40871;SDS011;26591;43.264;26.940;2023-04-25T06:03:42;11.77;;;4.13;;
40871;SDS011;26591;43.264;26.940;2023-04-25T06:06:08;12.93;;;4.65;;
40871;SDS011;26591;43.264;26.940;2023-04-25T06:08:35;14.93;;;4.47;;
40871;SDS011;26591;43.264;26.940;2023-04-25T06:11:00;19.80;;;4.47;;
40871;SDS011;26591;43.264;26.940;2023-04-25T06:13:26;11.68;;;4.47;;
40871;SDS011;26591;43.264;26.940;2023-04-25T06:15:51;8.73;;;3.97;;
40871;SDS011;26591;43.264;26.940;2023-04-25T06:18:17;16.92;;;5.28;;
40871;SDS011;26591;43.264;26.940;2023-04-25T06:20:42;19.60;;;5.05;;
40871;SDS011;26591;43.264;26.940;2023-04-25T06:23:08;19.45;;;5.63;;
40871;SDS011;26591;43.264;26.940;2023-04-25T06:25:33;10.73;;;5.03;;
40871;SDS011;26591;43.264;26.940;2023-04-25T06:27:59;11.98;;;4.97;;
40871;SDS011;26591;43.264;26.940;2023-04-25T06:30:24;13.55;;;5.07;;
40871;SDS011;26591;43.264;26.940;2023-04-25T06:32:51;26.45;;;7.93;;
40871;SDS011;26591;43.264;26.940;2023-04-25T06:35:18;14.10;;;5.00;;
40871;SDS011;26591;43.264;26.940;2023-04-25T06:37:43;24.85;;;5.57;;
40871;SDS011;26591;43.264;26.940;2023-04-25T06:40:09;14.05;;;5.57;;
40871;SDS011;26591;43.264;26.940;2023-04-25T06:42:36;14.88;;;5.30;;
40871;SDS011;26591;43.264;26.940;2023-04-25T06:45:01;13.00;;;4.88;;
40871;SDS011;26591;43.264;26.940;2023-04-25T06:47:27;11.07;;;4.55;;
40871;SDS011;26591;43.264;26.940;2023-04-25T06:49:53;15.48;;;5.00;;
40871;SDS011;26591;43.264;26.940;2023-04-25T06:52:18;16.63;;;5.63;;
40871;SDS011;26591;43.264;26.940;2023-04-25T06:54:44;21.73;;;5.45;;
40871;SDS011;26591;43.264;26.940;2023-04-25T06:57:10;15.20;;;5.63;;
40871;SDS011;26591;43.264;26.940;2023-04-25T06:59:35;20.92;;;5.50;;
40871;SDS011;26591;43.264;26.940;2023-04-25T07:02:01;5.72;;;3.83;;
40871;SDS011;26591;43.264;26.940;2023-04-25T07:04:27;17.13;;;4.25;;
40871;SDS011;26591;43.264;26.940;2023-04-25T07:06:52;10.40;;;4.45;;
40871;SDS011;26591;43.264;26.940;2023-04-25T07:09:18;5.93;;;3.92;;
40871;SDS011;26591;43.264;26.940;2023-04-25T07:11:44;12.00;;;4.50;;
40871;SDS011;26591;43.264;26.940;2023-04-25T07:14:09;11.75;;;5.00;;
40871;SDS011;26591;43.264;26.940;2023-04-25T07:16:35;10.05;;;4.70;;
40871;SDS011;26591;43.264;26.940;2023-04-25T07:19:02;9.45;;;4.25;;
40871;SDS011;26591;43.264;26.940;2023-04-25T07:21:28;16.17;;;4.63;;
40871;SDS011;26591;43.264;26.940;2023-04-25T07:23:53;15.73;;;4.68;;
40871;SDS011;26591;43.264;26.940;2023-04-25T07:26:19;7.57;;;3.95;;
40871;SDS011;26591;43.264;26.940;2023-04-25T07:28:44;10.85;;;4.70;;
40871;SDS011;26591;43.264;26.940;2023-04-25T07:31:25;13.10;;;5.97;;
40871;SDS011;26591;43.264;26.940;2023-04-25T07:33:51;18.40;;;6.68;;
40871;SDS011;26591;43.264;26.940;2023-04-25T07:36:17;14.32;;;6.47;;
40871;SDS011;26591;43.264;26.940;2023-04-25T07:38:42;7.15;;;3.92;;
40871;SDS011;26591;43.264;26.940;2023-04-25T07:41:08;6.45;;;3.60;;
40871;SDS011;26591;43.264;26.940;2023-04-25T07:43:33;10.68;;;3.13;;
40871;SDS011;26591;43.264;26.940;2023-04-25T07:45:59;9.35;;;3.92;;
40871;SDS011;26591;43.264;26.940;2023-04-25T07:48:24;4.80;;;3.13;;
40871;SDS011;26591;43.264;26.940;2023-04-25T07:50:50;9.95;;;3.33;;
40871;SDS011;26591;43.264;26.940;2023-04-25T07:53:16;9.10;;;3.25;;
40871;SDS011;26591;43.264;26.940;2023-04-25T07:55:43;11.70;;;3.40;;
40871;SDS011;26591;43.264;26.940;2023-04-25T07:58:08;9.18;;;4.00;;
40871;SDS011;26591;43.264;26.940;2023-04-25T08:00:35;11.32;;;4.10;;
40871;SDS011;26591;43.264;26.940;2023-04-25T08:03:01;15.32;;;4.03;;
40871;SDS011;26591;43.264;26.940;2023-04-25T08:05:27;5.80;;;2.75;;
40871;SDS011;26591;43.264;26.940;2023-04-25T08:07:53;5.70;;;3.05;;
40871;SDS011;26591;43.264;26.940;2023-04-25T08:10:18;6.70;;;2.92;;
40871;SDS011;26591;43.264;26.940;2023-04-25T08:12:44;3.88;;;2.53;;
40871;SDS011;26591;43.264;26.940;2023-04-25T08:15:10;4.72;;;2.60;;
40871;SDS011;26591;43.264;26.940;2023-04-25T08:17:35;6.50;;;2.80;;
40871;SDS011;26591;43.264;26.940;2023-04-25T08:20:01;6.57;;;3.10;;
40871;SDS011;26591;43.264;26.940;2023-04-25T08:22:30;5.22;;;2.53;;
40871;SDS011;26591;43.264;26.940;2023-04-25T08:24:56;5.63;;;2.70;;
40871;SDS011;26591;43.264;26.940;2023-04-25T08:27:24;10.43;;;3.15;;
40871;SDS011;26591;43.264;26.940;2023-04-25T08:29:49;8.65;;;2.58;;
40871;SDS011;26591;43.264;26.940;2023-04-25T08:32:16;4.47;;;2.60;;
40871;SDS011;26591;43.264;26.940;2023-04-25T08:34:41;8.90;;;2.97;;
40871;SDS011;26591;43.264;26.940;2023-04-25T08:37:09;3.80;;;2.22;;
40871;SDS011;26591;43.264;26.940;2023-04-25T08:39:38;4.22;;;2.47;;
40871;SDS011;26591;43.264;26.940;2023-04-25T08:42:05;9.13;;;2.60;;
40871;SDS011;26591;43.264;26.940;2023-04-25T08:44:35;4.35;;;2.75;;
40871;SDS011;26591;43.264;26.940;2023-04-25T08:47:03;7.72;;;2.60;;
40871;SDS011;26591;43.264;26.940;2023-04-25T08:49:32;11.90;;;2.90;;
40871;SDS011;26591;43.264;26.940;2023-04-25T08:52:00;5.18;;;3.00;;
40871;SDS011;26591;43.264;26.940;2023-04-25T08:54:29;7.75;;;2.70;;
40871;SDS011;26591;43.264;26.940;2023-04-25T08:56:56;3.35;;;2.35;;
40871;SDS011;26591;43.264;26.940;2023-04-25T08:59:25;5.55;;;2.38;;
40871;SDS011;26591;43.264;26.940;2023-04-25T09:01:51;6.60;;;2.78;;
40871;SDS011;26591;43.264;26.940;2023-04-25T09:04:17;6.55;;;2.70;;
40871;SDS011;26591;43.264;26.940;2023-04-25T09:06:45;11.55;;;2.53;;
40871;SDS011;26591;43.264;26.940;2023-04-25T09:09:11;3.78;;;2.00;;
40871;SDS011;26591;43.264;26.940;2023-04-25T09:11:37;4.07;;;1.92;;
40871;SDS011;26591;43.264;26.940;2023-04-25T09:14:12;9.48;;;2.38;;
40871;SDS011;26591;43.264;26.940;2023-04-25T09:19:36;2.42;;;1.10;;
40871;SDS011;26591;43.264;26.940;2023-04-25T09:22:05;3.63;;;1.27;;
40871;SDS011;26591;43.264;26.940;2023-04-25T09:24:35;3.78;;;1.52;;
40871;SDS011;26591;43.264;26.940;2023-04-25T09:27:06;3.08;;;1.45;;
40871;SDS011;26591;43.264;26.940;2023-04-25T09:29:36;4.63;;;1.50;;
40871;SDS011;26591;43.264;26.940;2023-04-25T09:32:14;6.13;;;1.73;;
40871;SDS011;26591;43.264;26.940;2023-04-25T09:34:43;9.48;;;2.35;;
40871;SDS011;26591;43.264;26.940;2023-04-25T09:37:22;1.77;;;1.30;;
40871;SDS011;26591;43.264;26.940;2023-04-25T09:39:56;13.10;;;1.55;;
40871;SDS011;26591;43.264;26.940;2023-04-25T09:42:30;1.80;;;1.00;;
40871;SDS011;26591;43.264;26.940;2023-04-25T09:44:57;9.55;;;1.45;;
40871;SDS011;26591;43.264;26.940;2023-04-25T09:47:26;3.83;;;1.40;;
40871;SDS011;26591;43.264;26.940;2023-04-25T09:52:21;2.90;;;1.15;;
40871;SDS011;26591;43.264;26.940;2023-04-25T09:54:48;3.78;;;1.20;;
40871;SDS011;26591;43.264;26.940;2023-04-25T09:57:15;3.90;;;1.38;;
40871;SDS011;26591;43.264;26.940;2023-04-25T09:59:43;5.57;;;1.27;;
40871;SDS011;26591;43.264;26.940;2023-04-25T10:02:14;5.85;;;1.73;;
40871;SDS011;26591;43.264;26.940;2023-04-25T10:04:41;7.18;;;1.90;;
40871;SDS011;26591;43.264;26.940;2023-04-25T10:07:09;11.27;;;2.90;;
40871;SDS011;26591;43.264;26.940;2023-04-25T10:09:37;5.45;;;1.70;;
40871;SDS011;26591;43.264;26.940;2023-04-25T10:12:05;11.30;;;2.05;;
40871;SDS011;26591;43.264;26.940;2023-04-25T10:14:32;4.18;;;1.17;;
40871;SDS011;26591;43.264;26.940;2023-04-25T10:16:58;12.23;;;2.05;;
40871;SDS011;26591;43.264;26.940;2023-04-25T10:19:25;3.17;;;1.35;;
40871;SDS011;26591;43.264;26.940;2023-04-25T10:24:43;10.80;;;2.30;;
40871;SDS011;26591;43.264;26.940;2023-04-25T10:27:11;3.35;;;1.38;;
40871;SDS011;26591;43.264;26.940;2023-04-25T10:29:37;6.07;;;1.80;;
40871;SDS011;26591;43.264;26.940;2023-04-25T10:32:03;4.05;;;1.40;;
40871;SDS011;26591;43.264;26.940;2023-04-25T10:34:38;9.05;;;1.73;;
40871;SDS011;26591;43.264;26.940;2023-04-25T10:37:04;6.43;;;1.73;;
40871;SDS011;26591;43.264;26.940;2023-04-25T10:39:32;5.47;;;2.08;;
40871;SDS011;26591;43.264;26.940;2023-04-25T10:41:58;7.25;;;2.15;;
40871;SDS011;26591;43.264;26.940;2023-04-25T10:44:27;4.03;;;1.38;;
40871;SDS011;26591;43.264;26.940;2023-04-25T10:46:56;8.35;;;1.40;;
40871;SDS011;26591;43.264;26.940;2023-04-25T10:52:10;5.50;;;1.88;;
40871;SDS011;26591;43.264;26.940;2023-04-25T10:57:27;3.17;;;1.85;;
40871;SDS011;26591;43.264;26.940;2023-04-25T11:00:00;4.45;;;1.52;;
40871;SDS011;26591;43.264;26.940;2023-04-25T11:02:42;6.40;;;2.00;;
40871;SDS011;26591;43.264;26.940;2023-04-25T11:05:10;3.22;;;2.00;;
40871;SDS011;26591;43.264;26.940;2023-04-25T11:07:49;5.30;;;1.80;;
40871;SDS011;26591;43.264;26.940;2023-04-25T11:10:29;3.92;;;1.88;;
40871;SDS011;26591;43.264;26.940;2023-04-25T11:12:56;4.07;;;1.63;;
40871;SDS011;26591;43.264;26.940;2023-04-25T11:15:23;3.05;;;1.65;;
40871;SDS011;26591;43.264;26.940;2023-04-25T11:17:53;3.67;;;1.63;;
40871;SDS011;26591;43.264;26.940;2023-04-25T11:20:20;3.88;;;1.90;;
40871;SDS011;26591;43.264;26.940;2023-04-25T11:22:46;23.08;;;5.78;;
40871;SDS011;26591;43.264;26.940;2023-04-25T11:25:13;3.63;;;2.00;;
40871;SDS011;26591;43.264;26.940;2023-04-25T11:30:22;4.40;;;2.00;;
40871;SDS011;26591;43.264;26.940;2023-04-25T11:32:49;4.85;;;2.33;;
40871;SDS011;26591;43.264;26.940;2023-04-25T11:35:15;5.07;;;1.75;;
40871;SDS011;26591;43.264;26.940;2023-04-25T11:37:44;5.43;;;1.90;;
40871;SDS011;26591;43.264;26.940;2023-04-25T11:40:11;10.57;;;3.03;;
40871;SDS011;26591;43.264;26.940;2023-04-25T11:42:39;8.43;;;1.83;;
40871;SDS011;26591;43.264;26.940;2023-04-25T11:45:09;6.63;;;2.15;;
40871;SDS011;26591;43.264;26.940;2023-04-25T11:47:35;8.15;;;2.20;;
40871;SDS011;26591;43.264;26.940;2023-04-25T11:50:01;6.00;;;2.05;;
40871;SDS011;26591;43.264;26.940;2023-04-25T11:52:41;6.22;;;2.10;;
40871;SDS011;26591;43.264;26.940;2023-04-25T11:55:15;7.22;;;2.28;;
40871;SDS011;26591;43.264;26.940;2023-04-25T11:57:42;3.08;;;1.75;;
40871;SDS011;26591;43.264;26.940;2023-04-25T12:02:43;5.30;;;1.60;;
40871;SDS011;26591;43.264;26.940;2023-04-25T12:05:10;5.22;;;1.95;;
40871;SDS011;26591;43.264;26.940;2023-04-25T12:07:37;5.68;;;1.90;;
40871;SDS011;26591;43.264;26.940;2023-04-25T12:10:09;3.75;;;2.10;;
40871;SDS011;26591;43.264;26.940;2023-04-25T12:12:38;2.17;;;1.63;;
40871;SDS011;26591;43.264;26.940;2023-04-25T12:15:10;5.72;;;1.90;;
40871;SDS011;26591;43.264;26.940;2023-04-25T12:17:41;6.95;;;1.88;;
40871;SDS011;26591;43.264;26.940;2023-04-25T12:20:10;4.10;;;2.08;;
40871;SDS011;26591;43.264;26.940;2023-04-25T12:22:40;5.47;;;3.13;;
40871;SDS011;26591;43.264;26.940;2023-04-25T12:25:33;2.33;;;1.73;;
40871;SDS011;26591;43.264;26.940;2023-04-25T12:31:02;6.75;;;2.13;;
40871;SDS011;26591;43.264;26.940;2023-04-25T12:33:32;11.30;;;2.60;;
40871;SDS011;26591;43.264;26.940;2023-04-25T12:35:58;14.93;;;3.05;;
40871;SDS011;26591;43.264;26.940;2023-04-25T12:38:26;11.70;;;2.92;;
40871;SDS011;26591;43.264;26.940;2023-04-25T12:40:56;11.30;;;2.58;;
40871;SDS011;26591;43.264;26.940;2023-04-25T12:43:23;21.17;;;2.65;;
40871;SDS011;26591;43.264;26.940;2023-04-25T12:45:51;6.82;;;1.50;;
40871;SDS011;26591;43.264;26.940;2023-04-25T12:48:18;22.70;;;2.42;;
40871;SDS011;26591;43.264;26.940;2023-04-25T12:50:44;3.25;;;1.35;;
40871;SDS011;26591;43.264;26.940;2023-04-25T12:53:12;8.52;;;1.35;;
40871;SDS011;26591;43.264;26.940;2023-04-25T12:55:38;5.55;;;1.20;;
40871;SDS011;26591;43.264;26.940;2023-04-25T12:58:03;12.25;;;4.22;;
40871;SDS011;26591;43.264;26.940;2023-04-25T13:00:29;3.72;;;0.90;;
40871;SDS011;26591;43.264;26.940;2023-04-25T13:02:55;2.83;;;0.98;;
40871;SDS011;26591;43.264;26.940;2023-04-25T13:05:21;1.17;;;0.88;;
40871;SDS011;26591;43.264;26.940;2023-04-25T13:07:47;5.20;;;1.10;;
40871;SDS011;26591;43.264;26.940;2023-04-25T13:10:12;6.30;;;1.05;;
40871;SDS011;26591;43.264;26.940;2023-04-25T13:12:38;1.92;;;1.20;;
40871;SDS011;26591;43.264;26.940;2023-04-25T13:15:03;1.42;;;1.05;;
40871;SDS011;26591;43.264;26.940;2023-04-25T13:20:18;6.68;;;1.65;;
40871;SDS011;26591;43.264;26.940;2023-04-25T13:22:47;2.78;;;1.13;;
40871;SDS011;26591;43.264;26.940;2023-04-25T13:25:13;12.68;;;1.88;;
40871;SDS011;26591;43.264;26.940;2023-04-25T13:27:38;4.40;;;1.80;;
40871;SDS011;26591;43.264;26.940;2023-04-25T13:30:05;3.30;;;1.40;;
40871;SDS011;26591;43.264;26.940;2023-04-25T13:32:34;4.63;;;1.70;;
40871;SDS011;26591;43.264;26.940;2023-04-25T13:35:04;3.77;;;1.80;;
40871;SDS011;26591;43.264;26.940;2023-04-25T13:37:31;6.43;;;2.08;;
40871;SDS011;26591;43.264;26.940;2023-04-25T13:40:00;6.85;;;2.88;;
40871;SDS011;26591;43.264;26.940;2023-04-25T13:42:29;6.40;;;2.55;;
40871;SDS011;26591;43.264;26.940;2023-04-25T13:44:54;5.22;;;1.95;;
40871;SDS011;26591;43.264;26.940;2023-04-25T13:47:20;8.35;;;3.80;;
40871;SDS011;26591;43.264;26.940;2023-04-25T13:49:45;7.07;;;3.78;;
40871;SDS011;26591;43.264;26.940;2023-04-25T13:52:11;10.43;;;5.55;;
40871;SDS011;26591;43.264;26.940;2023-04-25T13:54:36;12.23;;;4.25;;
40871;SDS011;26591;43.264;26.940;2023-04-25T13:57:11;37.17;;;18.85;;
40871;SDS011;26591;43.264;26.940;2023-04-25T13:59:38;57.33;;;31.55;;
40871;SDS011;26591;43.264;26.940;2023-04-25T14:02:04;14.13;;;7.70;;
40871;SDS011;26591;43.264;26.940;2023-04-25T14:04:30;8.23;;;3.80;;
40871;SDS011;26591;43.264;26.940;2023-04-25T14:06:55;13.32;;;4.68;;
40871;SDS011;26591;43.264;26.940;2023-04-25T14:09:21;8.00;;;4.35;;
40871;SDS011;26591;43.264;26.940;2023-04-25T14:11:51;6.85;;;3.40;;
40871;SDS011;26591;43.264;26.940;2023-04-25T14:14:17;15.95;;;3.45;;
40871;SDS011;26591;43.264;26.940;2023-04-25T14:16:43;8.35;;;5.75;;
40871;SDS011;26591;43.264;26.940;2023-04-25T14:19:12;13.90;;;5.60;;
40871;SDS011;26591;43.264;26.940;2023-04-25T14:21:37;11.90;;;6.60;;
40871;SDS011;26591;43.264;26.940;2023-04-25T14:24:03;14.52;;;6.25;;
40871;SDS011;26591;43.264;26.940;2023-04-25T14:26:30;13.30;;;7.63;;
40871;SDS011;26591;43.264;26.940;2023-04-25T14:28:55;11.80;;;7.82;;
40871;SDS011;26591;43.264;26.940;2023-04-25T14:31:21;17.13;;;8.32;;
40871;SDS011;26591;43.264;26.940;2023-04-25T14:33:47;11.35;;;7.47;;
40871;SDS011;26591;43.264;26.940;2023-04-25T14:36:12;10.55;;;6.85;;
40871;SDS011;26591;43.264;26.940;2023-04-25T14:38:39;11.18;;;6.97;;
40871;SDS011;26591;43.264;26.940;2023-04-25T14:41:04;9.75;;;6.45;;
40871;SDS011;26591;43.264;26.940;2023-04-25T14:43:30;12.27;;;7.20;;
40871;SDS011;26591;43.264;26.940;2023-04-25T14:45:56;15.50;;;8.77;;
40871;SDS011;26591;43.264;26.940;2023-04-25T14:48:21;11.50;;;7.07;;